Cedar Valley, Utah
Current Conditions -  °F | °C
As of 11:35 PM on Saturday 25 Oct 2014 (Local Time) from KPVU Reporting Station
Clear Clear  
Wind Chill: 17°   Ceiling: Unl
Heat Index: 17°   Visibility: 10mi
Dew Point:   Wind: 13mph
Humidity: 42%   Direction: 160°SSE
Pressure: 29.99"   Gusts: 17mph
Location:  40.29°N, 112.07°W
Report Text: KPVU 260535Z AUTO 16011G15KT 10SM CLR 17/04 A2999 RMK AO1
Loading
Personal Weather Stations






























Interactive Weather Map
Tropical Storm Tracking
New forecast layout! Learn more

10-Day Weather Forecast

Advertisements
Track Severe Weather on mobile